createdAt,value
2023-03-16T00:02:04.646Z,3.08
2023-03-16T00:04:32.232Z,2.70
2023-03-16T00:06:59.191Z,3.03
2023-03-16T00:09:31.036Z,2.58
2023-03-16T00:11:59.681Z,2.80
2023-03-16T00:14:26.831Z,2.90
2023-03-16T00:16:53.650Z,2.90
2023-03-16T00:19:22.869Z,2.80
2023-03-16T00:21:53.552Z,3.08
2023-03-16T00:24:20.569Z,3.13
2023-03-16T00:26:48.281Z,2.60
2023-03-16T00:29:15.165Z,2.53
2023-03-16T00:31:45.303Z,2.35
2023-03-16T00:34:12.774Z,2.85
2023-03-16T00:36:39.630Z,2.70
2023-03-16T00:39:06.934Z,2.40
2023-03-16T00:41:37.875Z,2.28
2023-03-16T00:44:05.813Z,4.00
2023-03-16T00:46:32.642Z,2.60
2023-03-16T00:48:59.521Z,2.58
2023-03-16T00:51:26.354Z,2.55
2023-03-16T00:53:53.116Z,2.80
2023-03-16T00:56:20.015Z,2.47
2023-03-16T00:58:46.809Z,2.38
2023-03-16T01:01:18.746Z,2.63
2023-03-16T01:03:46.359Z,2.58
2023-03-16T01:06:17.173Z,3.15
2023-03-16T01:08:44.814Z,3.03
2023-03-16T01:11:16.746Z,3.17
2023-03-16T01:13:44.443Z,2.53
2023-03-16T01:16:11.461Z,2.67
2023-03-16T01:18:38.371Z,2.88
2023-03-16T01:21:08.878Z,3.20
2023-03-16T01:23:37.525Z,2.70
2023-03-16T01:26:04.434Z,2.90
2023-03-16T01:28:32.638Z,3.13
2023-03-16T01:31:09.794Z,2.70
2023-03-16T01:33:37.483Z,3.00
2023-03-16T01:36:17.116Z,2.80
2023-03-16T01:38:44.286Z,2.72
2023-03-16T01:41:11.916Z,2.92
2023-03-16T01:43:40.836Z,3.03
2023-03-16T01:46:07.556Z,3.00
2023-03-16T01:49:08.206Z,2.63
2023-03-16T01:52:12.590Z,3.05
2023-03-16T01:54:50.729Z,3.28
2023-03-16T01:57:24.539Z,2.83
2023-03-16T02:00:19.754Z,3.05
2023-03-16T02:02:55.572Z,3.42
2023-03-16T02:05:33.296Z,2.80
2023-03-16T02:08:01.686Z,3.60
2023-03-16T02:10:29.575Z,3.67
2023-03-16T02:12:57.983Z,3.00
2023-03-16T02:15:25.421Z,2.95
2023-03-16T02:17:52.554Z,2.92
2023-03-16T02:20:35.810Z,2.63
2023-03-16T02:23:05.963Z,3.30
2023-03-16T02:25:43.973Z,2.72
2023-03-16T02:28:32.363Z,3.10
2023-03-16T02:30:59.852Z,2.97
2023-03-16T02:33:26.787Z,2.75
2023-03-16T02:35:53.597Z,3.00
2023-03-16T02:38:20.798Z,2.47
2023-03-16T02:41:00.953Z,3.40
2023-03-16T02:43:33.451Z,3.38
2023-03-16T02:46:05.161Z,2.90
2023-03-16T02:48:45.280Z,2.50
2023-03-16T02:51:12.204Z,2.67
2023-03-16T02:53:38.993Z,3.17
2023-03-16T02:56:06.289Z,2.70
2023-03-16T02:58:33.087Z,2.55
2023-03-16T03:00:59.894Z,3.08
2023-03-16T03:03:26.712Z,2.83
2023-03-16T03:05:53.502Z,2.70
2023-03-16T03:08:23.446Z,2.40
2023-03-16T03:10:50.362Z,2.65
2023-03-16T03:13:18.210Z,2.70
2023-03-16T03:15:45.465Z,2.92
2023-03-16T03:18:12.378Z,2.70
2023-03-16T03:20:39.143Z,2.13
2023-03-16T03:23:06.065Z,2.47
2023-03-16T03:25:34.936Z,3.03
2023-03-16T03:28:05.566Z,2.40
2023-03-16T03:30:32.787Z,2.75
2023-03-16T03:32:59.621Z,3.53
2023-03-16T03:35:26.476Z,3.17
2023-03-16T03:37:53.920Z,2.60
2023-03-16T03:40:21.429Z,2.55
2023-03-16T03:42:48.727Z,2.80
2023-03-16T03:45:16.016Z,2.90
2023-03-16T03:47:44.218Z,2.58
2023-03-16T03:50:13.802Z,2.60
2023-03-16T03:52:40.873Z,2.95
2023-03-16T03:55:08.645Z,2.67
2023-03-16T03:57:35.605Z,3.00
2023-03-16T04:00:02.738Z,2.53
2023-03-16T04:02:29.604Z,2.75
2023-03-16T04:04:56.465Z,2.95
2023-03-16T04:07:23.225Z,3.13
2023-03-16T04:09:50.018Z,2.70
2023-03-16T04:12:16.805Z,2.47
2023-03-16T04:14:43.589Z,2.80
2023-03-16T04:17:10.461Z,3.30
2023-03-16T04:19:37.344Z,2.67
2023-03-16T04:22:04.138Z,2.58
2023-03-16T04:24:34.190Z,2.83
2023-03-16T04:27:02.730Z,2.40
2023-03-16T04:29:29.533Z,2.53
2023-03-16T04:31:56.326Z,2.80
2023-03-16T04:34:24.933Z,2.40
2023-03-16T04:36:52.822Z,2.60
2023-03-16T04:39:20.689Z,2.92
2023-03-16T04:41:47.551Z,2.63
2023-03-16T04:44:14.655Z,2.28
2023-03-16T04:46:41.722Z,2.55
2023-03-16T04:49:09.793Z,2.17
2023-03-16T04:51:40.465Z,2.72
2023-03-16T04:54:07.635Z,2.70
2023-03-16T04:56:34.618Z,2.88
2023-03-16T04:59:01.564Z,2.58
2023-03-16T05:01:28.384Z,2.35
2023-03-16T05:03:55.156Z,2.40
2023-03-16T05:06:22.300Z,2.42
2023-03-16T05:08:49.062Z,2.40
2023-03-16T05:11:15.827Z,2.55
2023-03-16T05:13:42.572Z,2.22
2023-03-16T05:16:09.383Z,2.72
2023-03-16T05:18:36.203Z,3.00
2023-03-16T05:21:03.053Z,2.42
2023-03-16T05:23:29.797Z,2.22
2023-03-16T05:26:02.745Z,2.72
2023-03-16T05:28:29.582Z,2.30
2023-03-16T05:30:56.491Z,2.13
2023-03-16T05:33:23.376Z,3.08
2023-03-16T05:35:51.426Z,2.20
2023-03-16T05:38:18.259Z,2.50
2023-03-16T05:40:46.124Z,2.70
2023-03-16T05:43:13.319Z,2.25
2023-03-16T05:45:40.313Z,1.95
2023-03-16T05:48:07.121Z,2.85
2023-03-16T05:50:34.495Z,2.40
2023-03-16T05:53:01.316Z,2.10
2023-03-16T05:55:28.089Z,2.13
2023-03-16T05:57:54.898Z,1.67
2023-03-16T06:00:22.754Z,2.13
2023-03-16T06:02:51.864Z,2.45
2023-03-16T06:05:21.760Z,2.25
2023-03-16T06:07:50.068Z,2.05
2023-03-16T06:10:17.461Z,2.15
2023-03-16T06:12:44.635Z,2.05
2023-03-16T06:15:12.067Z,2.38
2023-03-16T06:17:41.406Z,3.35
2023-03-16T06:20:12.936Z,1.88
2023-03-16T06:22:42.087Z,2.10
2023-03-16T06:25:12.015Z,1.90
2023-03-16T06:27:39.882Z,1.80
2023-03-16T06:30:09.002Z,2.17
2023-03-16T06:32:36.253Z,2.08
2023-03-16T06:35:04.044Z,1.90
2023-03-16T06:37:31.790Z,2.33
2023-03-16T06:39:58.561Z,2.28
2023-03-16T06:42:25.432Z,2.90
2023-03-16T06:44:52.722Z,2.25
2023-03-16T06:47:20.440Z,1.83
2023-03-16T06:49:47.252Z,1.70
2023-03-16T06:52:14.845Z,2.00
2023-03-16T06:54:41.914Z,2.15
2023-03-16T06:57:09.237Z,2.10
2023-03-16T06:59:36.096Z,1.70
2023-03-16T07:02:03.091Z,1.50
2023-03-16T07:04:29.930Z,1.60
2023-03-16T07:06:56.766Z,1.60
2023-03-16T07:09:24.001Z,1.52
2023-03-16T07:11:52.574Z,1.85
2023-03-16T07:14:19.897Z,2.47
2023-03-16T07:16:46.743Z,1.90
2023-03-16T07:19:13.698Z,1.75
2023-03-16T07:21:41.807Z,2.58
2023-03-16T07:24:10.588Z,2.40
2023-03-16T07:26:37.587Z,2.95
2023-03-16T07:29:06.248Z,2.75
2023-03-16T07:31:34.542Z,1.88
2023-03-16T07:34:02.361Z,2.03
2023-03-16T07:36:29.173Z,1.92
2023-03-16T07:38:55.991Z,2.40
2023-03-16T07:41:22.833Z,1.70
2023-03-16T07:43:49.577Z,1.80
2023-03-16T07:46:16.472Z,1.92
2023-03-16T07:48:44.832Z,1.67
2023-03-16T07:51:13.599Z,1.92
2023-03-16T07:53:41.465Z,2.05
2023-03-16T07:56:08.767Z,1.25
2023-03-16T07:58:35.654Z,1.90
2023-03-16T08:01:02.526Z,1.58
2023-03-16T08:03:30.140Z,1.65
2023-03-16T08:05:57.031Z,2.13
2023-03-16T08:08:23.914Z,1.92
2023-03-16T08:10:52.731Z,2.03
2023-03-16T08:13:22.261Z,1.20
2023-03-16T08:15:58.531Z,1.40
2023-03-16T08:18:26.459Z,1.73
2023-03-16T08:20:54.760Z,2.00
2023-03-16T08:23:22.567Z,1.75
2023-03-16T08:25:55.743Z,1.27
2023-03-16T08:28:22.865Z,1.38
2023-03-16T08:30:53.548Z,1.27
2023-03-16T08:33:23.037Z,1.50
2023-03-16T08:35:50.682Z,1.83
2023-03-16T08:38:19.044Z,1.67
2023-03-16T08:40:48.437Z,1.60
2023-03-16T08:43:19.055Z,1.77
2023-03-16T08:45:46.610Z,1.50
2023-03-16T08:48:14.319Z,1.63
2023-03-16T08:50:43.968Z,1.35
2023-03-16T08:53:13.727Z,1.77
2023-03-16T08:55:41.683Z,1.33
2023-03-16T08:58:10.506Z,1.42
2023-03-16T09:00:38.222Z,1.42
2023-03-16T09:03:06.224Z,1.08
2023-03-16T09:05:34.108Z,1.17
2023-03-16T09:08:01.554Z,1.25
2023-03-16T09:10:28.953Z,2.03
2023-03-16T09:12:56.644Z,1.30
2023-03-16T09:15:23.478Z,1.55
2023-03-16T09:17:50.436Z,1.20
2023-03-16T09:20:26.162Z,1.10
2023-03-16T09:22:56.016Z,1.05
2023-03-16T09:25:25.347Z,1.40
2023-03-16T09:27:52.771Z,1.00
2023-03-16T09:30:19.913Z,1.02
2023-03-16T09:32:48.803Z,1.10
2023-03-16T09:35:16.041Z,0.93
2023-03-16T09:38:04.265Z,1.05
2023-03-16T09:40:30.816Z,0.80
2023-03-16T09:43:27.161Z,1.00
2023-03-16T09:46:15.364Z,1.70
2023-03-16T09:48:42.238Z,1.58
2023-03-16T09:51:35.389Z,1.02
2023-03-16T09:54:04.170Z,1.27
2023-03-16T09:56:38.108Z,1.00
2023-03-16T09:59:13.457Z,1.40
2023-03-16T10:02:05.456Z,1.17
2023-03-16T10:05:09.488Z,0.80
2023-03-16T10:07:44.462Z,0.95
2023-03-16T10:10:11.139Z,0.98
2023-03-16T10:12:43.424Z,0.80
2023-03-16T10:15:18.443Z,1.10
2023-03-16T10:18:13.453Z,0.90
2023-03-16T10:20:41.940Z,1.02
2023-03-16T10:23:25.037Z,0.90
2023-03-16T10:25:54.887Z,0.90
2023-03-16T10:28:23.922Z,0.82
2023-03-16T10:30:54.777Z,1.02
2023-03-16T10:33:29.498Z,0.80
2023-03-16T10:35:59.716Z,1.10
2023-03-16T10:38:42.899Z,0.77
2023-03-16T10:41:19.147Z,1.00
2023-03-16T10:44:08.956Z,1.00
2023-03-16T10:47:06.809Z,0.77
2023-03-16T10:49:48.897Z,0.88
2023-03-16T10:52:42.436Z,0.77
2023-03-16T10:55:41.009Z,1.38
2023-03-16T10:58:09.243Z,0.88
2023-03-16T11:00:43.152Z,0.70
2023-03-16T11:03:55.501Z,0.75
2023-03-16T11:06:30.773Z,1.20
2023-03-16T11:09:24.680Z,0.77
2023-03-16T11:11:52.333Z,0.60
2023-03-16T11:14:22.997Z,0.70
2023-03-16T11:17:25.167Z,0.90
2023-03-16T11:20:00.739Z,1.08
2023-03-16T11:22:30.088Z,0.75
2023-03-16T11:25:20.283Z,1.10
2023-03-16T11:28:12.860Z,0.57
2023-03-16T11:31:20.770Z,0.80
2023-03-16T11:33:49.157Z,0.93
2023-03-16T11:36:44.906Z,0.90
2023-03-16T11:39:53.449Z,0.80
2023-03-16T11:42:39.397Z,0.80
2023-03-16T11:45:28.852Z,0.95
2023-03-16T11:48:37.010Z,1.02
2023-03-16T11:51:19.396Z,0.90
2023-03-16T11:54:34.813Z,0.65
2023-03-16T11:57:26.289Z,0.80
2023-03-16T12:00:33.967Z,0.70
2023-03-16T12:03:36.500Z,0.60
2023-03-16T12:06:53.794Z,0.40
2023-03-16T12:09:51.439Z,0.50
2023-03-16T12:12:29.696Z,0.55
2023-03-16T12:15:33.524Z,0.70
2023-03-16T12:18:10.706Z,0.50
2023-03-16T12:20:56.424Z,0.98
2023-03-16T12:23:34.556Z,0.40
2023-03-16T12:26:03.493Z,0.70
2023-03-16T12:28:33.239Z,0.68
2023-03-16T12:31:23.699Z,0.63
2023-03-16T12:34:30.724Z,0.80
2023-03-16T12:37:35.930Z,0.70
2023-03-16T12:40:44.506Z,1.00
2023-03-16T12:43:31.653Z,0.60
2023-03-16T12:46:13.962Z,0.77
2023-03-16T12:48:49.587Z,0.80
2023-03-16T12:51:17.303Z,0.57
2023-03-16T12:53:54.664Z,0.70
2023-03-16T12:56:37.353Z,0.68
2023-03-16T12:59:06.110Z,0.65
2023-03-16T13:01:44.336Z,0.60
2023-03-16T13:04:19.370Z,0.80
2023-03-16T13:06:51.632Z,0.65
2023-03-16T13:09:25.200Z,0.70
2023-03-16T13:11:53.186Z,0.50
2023-03-16T13:14:44.152Z,0.80
2023-03-16T13:17:17.032Z,0.70
2023-03-16T13:19:47.881Z,1.33
2023-03-16T13:22:27.052Z,0.70
2023-03-16T13:25:12.961Z,0.65
2023-03-16T13:27:40.958Z,0.80
2023-03-16T13:30:21.447Z,0.73
2023-03-16T13:32:49.463Z,1.52
2023-03-16T13:35:18.805Z,0.90
2023-03-16T13:37:46.621Z,0.90
2023-03-16T13:40:32.232Z,0.90
2023-03-16T13:42:59.745Z,1.10
2023-03-16T13:45:37.968Z,0.80
2023-03-16T13:48:05.483Z,0.75
2023-03-16T13:50:36.291Z,0.68
2023-03-16T13:53:13.754Z,1.15
2023-03-16T13:55:41.611Z,0.95
2023-03-16T13:58:28.042Z,0.70
2023-03-16T14:01:01.734Z,0.70
2023-03-16T14:03:38.570Z,0.80
2023-03-16T14:06:22.323Z,1.00
2023-03-16T14:09:02.950Z,1.77
2023-03-16T14:11:30.080Z,0.90
2023-03-16T14:14:00.419Z,0.60
2023-03-16T14:16:29.784Z,0.85
2023-03-16T14:19:24.375Z,0.68
2023-03-16T14:21:51.725Z,0.80
2023-03-16T14:24:31.037Z,1.15
2023-03-16T14:27:08.588Z,0.98
2023-03-16T14:29:35.640Z,0.73
2023-03-16T14:32:03.179Z,0.88
2023-03-16T14:34:35.176Z,0.90
2023-03-16T14:37:14.678Z,0.73
2023-03-16T14:39:42.309Z,1.15
2023-03-16T14:42:28.680Z,0.82
2023-03-16T14:45:01.280Z,1.13
2023-03-16T14:47:40.658Z,1.13
2023-03-16T14:50:14.935Z,1.10
2023-03-16T14:52:41.914Z,1.20
2023-03-16T14:55:15.737Z,1.05
2023-03-16T14:57:45.076Z,1.00
2023-03-16T15:00:21.638Z,1.08
2023-03-16T15:03:05.017Z,0.85
2023-03-16T15:05:39.129Z,0.93
2023-03-16T15:08:14.744Z,0.88
2023-03-16T15:10:44.070Z,0.90
2023-03-16T15:13:39.370Z,1.10
2023-03-16T15:16:09.327Z,1.10
2023-03-16T15:18:37.493Z,1.00
2023-03-16T15:21:06.536Z,0.98
2023-03-16T15:23:33.324Z,0.98
2023-03-16T15:26:02.736Z,0.70
2023-03-16T15:28:29.655Z,1.20
2023-03-16T15:30:59.736Z,1.25
2023-03-16T15:33:27.212Z,0.90
2023-03-16T15:35:57.701Z,1.35
2023-03-16T15:38:32.198Z,0.90
2023-03-16T15:40:59.771Z,0.80
2023-03-16T15:43:30.656Z,1.00
2023-03-16T15:45:59.824Z,1.20
2023-03-16T15:48:26.952Z,1.25
2023-03-16T15:51:06.464Z,1.10
2023-03-16T15:53:50.173Z,0.98
2023-03-16T15:56:23.624Z,1.20
2023-03-16T15:58:50.812Z,1.00
2023-03-16T16:01:27.027Z,1.02
2023-03-16T16:03:56.007Z,0.90
2023-03-16T16:06:24.020Z,1.10
2023-03-16T16:08:50.886Z,1.10
2023-03-16T16:11:26.312Z,1.52
2023-03-16T16:13:56.485Z,1.40
2023-03-16T16:16:23.677Z,1.20
2023-03-16T16:18:50.896Z,1.55
2023-03-16T16:21:25.802Z,1.48
2023-03-16T16:23:52.947Z,1.55
2023-03-16T16:26:55.384Z,1.60
2023-03-16T16:29:26.596Z,1.50
2023-03-16T16:31:53.639Z,1.35
2023-03-16T16:34:24.565Z,1.70
2023-03-16T16:36:51.993Z,2.13
2023-03-16T16:39:18.890Z,1.92
2023-03-16T16:41:46.123Z,2.03
2023-03-16T16:44:24.346Z,1.92
2023-03-16T16:46:52.491Z,1.70
2023-03-16T16:49:24.527Z,1.40
2023-03-16T16:51:52.941Z,1.80
2023-03-16T16:54:27.134Z,1.75
2023-03-16T16:56:57.347Z,1.80
2023-03-16T16:59:28.720Z,1.70
2023-03-16T17:01:56.503Z,1.42
2023-03-16T17:04:27.011Z,1.77
2023-03-16T17:06:58.587Z,1.52
2023-03-16T17:09:27.741Z,1.30
2023-03-16T17:11:58.748Z,1.52
2023-03-16T17:14:28.113Z,1.15
2023-03-16T17:16:56.047Z,1.40
2023-03-16T17:19:27.050Z,1.42
2023-03-16T17:21:57.536Z,1.50
2023-03-16T17:24:24.931Z,1.40
2023-03-16T17:26:58.712Z,2.22
2023-03-16T17:29:31.945Z,2.00
2023-03-16T17:32:07.078Z,1.77
2023-03-16T17:34:34.651Z,1.60
2023-03-16T17:37:02.197Z,1.30
2023-03-16T17:39:34.144Z,1.33
2023-03-16T17:42:13.482Z,1.50
2023-03-16T17:44:44.718Z,2.45
2023-03-16T17:47:24.551Z,2.17
2023-03-16T17:49:52.501Z,1.35
2023-03-16T17:52:23.556Z,2.08
2023-03-16T17:54:52.747Z,2.05
2023-03-16T17:57:25.551Z,1.40
2023-03-16T17:59:52.444Z,1.25
2023-03-16T18:02:39.403Z,1.48
2023-03-16T18:05:16.451Z,1.80
2023-03-16T18:07:43.206Z,1.77
2023-03-16T18:10:28.954Z,1.85
2023-03-16T18:13:07.526Z,1.25
2023-03-16T18:15:36.552Z,0.90
2023-03-16T18:18:07.516Z,1.27
2023-03-16T18:20:36.582Z,1.33
2023-03-16T18:23:18.850Z,1.20
2023-03-16T18:25:49.390Z,1.70
2023-03-16T18:28:17.205Z,1.45
2023-03-16T18:30:47.376Z,1.70
2023-03-16T18:33:36.409Z,1.60
2023-03-16T18:36:10.219Z,1.67
2023-03-16T18:38:40.658Z,1.20
2023-03-16T18:41:18.427Z,1.50
2023-03-16T18:43:46.422Z,2.20
2023-03-16T18:46:31.465Z,1.90
2023-03-16T18:49:03.069Z,1.52
2023-03-16T18:51:31.082Z,1.30
2023-03-16T18:53:58.404Z,1.65
2023-03-16T18:56:29.086Z,1.35
2023-03-16T18:58:56.576Z,1.30
2023-03-16T19:01:31.653Z,1.10
2023-03-16T19:04:00.744Z,1.48
2023-03-16T19:06:34.030Z,1.23
2023-03-16T19:09:17.777Z,1.40
2023-03-16T19:11:46.036Z,1.73
2023-03-16T19:14:19.875Z,1.17
2023-03-16T19:16:46.806Z,1.40
2023-03-16T19:19:15.149Z,1.70
2023-03-16T19:21:42.963Z,1.77
2023-03-16T19:24:35.069Z,1.38
2023-03-16T19:27:02.064Z,1.88
2023-03-16T19:29:34.219Z,1.42
2023-03-16T19:32:01.774Z,2.17
2023-03-16T19:34:29.089Z,1.75
2023-03-16T19:36:56.184Z,1.80
2023-03-16T19:39:22.982Z,1.42
2023-03-16T19:41:57.936Z,1.50
2023-03-16T19:44:27.525Z,2.00
2023-03-16T19:46:55.058Z,1.48
2023-03-16T19:49:27.034Z,1.55
2023-03-16T19:51:55.710Z,1.60
2023-03-16T19:54:24.901Z,1.80
2023-03-16T19:56:53.656Z,1.58
2023-03-16T19:59:20.949Z,1.45
2023-03-16T20:01:48.105Z,1.67
2023-03-16T20:04:23.065Z,1.70
2023-03-16T20:06:50.862Z,1.48
2023-03-16T20:09:18.502Z,1.60
2023-03-16T20:11:47.189Z,1.45
2023-03-16T20:14:40.635Z,2.10
2023-03-16T20:17:14.507Z,1.60
2023-03-16T20:19:41.390Z,1.60
2023-03-16T20:22:21.430Z,1.75
2023-03-16T20:24:49.472Z,1.67
2023-03-16T20:27:19.188Z,1.95
2023-03-16T20:29:46.865Z,1.83
2023-03-16T20:32:21.086Z,1.90
2023-03-16T20:37:28.172Z,2.40
2023-03-16T20:39:59.127Z,1.60
2023-03-16T20:42:34.412Z,2.60
2023-03-16T20:45:01.620Z,2.28
2023-03-16T20:47:28.557Z,1.42
2023-03-16T20:49:59.009Z,2.10
2023-03-16T20:52:30.824Z,1.75
2023-03-16T20:54:57.922Z,1.60
2023-03-16T20:57:27.467Z,2.55
2023-03-16T20:59:55.477Z,1.95
2023-03-16T21:02:29.816Z,1.60
2023-03-16T21:07:25.469Z,1.45
2023-03-16T21:09:52.405Z,1.88
2023-03-16T21:12:29.439Z,1.70
2023-03-16T21:14:57.123Z,2.15
2023-03-16T21:17:33.667Z,1.92
2023-03-16T21:20:01.318Z,2.03
2023-03-16T21:22:31.722Z,2.00
2023-03-16T21:24:58.874Z,1.92
2023-03-16T21:27:34.337Z,2.22
2023-03-16T21:30:18.617Z,2.13
2023-03-16T21:32:45.600Z,2.20
2023-03-16T21:35:16.275Z,1.90
2023-03-16T21:37:43.239Z,1.50
2023-03-16T21:40:19.623Z,1.40
2023-03-16T21:42:47.492Z,1.23
2023-03-16T21:45:15.073Z,1.30
2023-03-16T21:47:42.932Z,1.73
2023-03-16T21:50:35.143Z,1.42
2023-03-16T21:53:02.296Z,1.70
2023-03-16T21:55:31.386Z,1.88
2023-03-16T21:57:59.831Z,1.58
2023-03-16T22:00:30.428Z,1.88
2023-03-16T22:03:00.111Z,1.70
2023-03-16T22:05:35.730Z,1.42
2023-03-16T22:08:21.253Z,1.63
2023-03-16T22:10:48.306Z,1.25
2023-03-16T22:13:15.208Z,1.38
2023-03-16T22:15:43.555Z,1.52
2023-03-16T22:18:29.150Z,1.60
2023-03-16T22:20:57.879Z,1.55
2023-03-16T22:23:36.790Z,1.10
2023-03-16T22:26:08.244Z,1.45
2023-03-16T22:28:35.005Z,1.35
2023-03-16T22:31:04.308Z,1.38
2023-03-16T22:33:34.646Z,1.20
2023-03-16T22:36:15.596Z,1.60
2023-03-16T22:38:43.464Z,1.42
2023-03-16T22:41:15.666Z,1.63
2023-03-16T22:43:44.536Z,1.10
2023-03-16T22:46:23.919Z,1.50
2023-03-16T22:48:52.836Z,1.40
2023-03-16T22:51:29.777Z,1.30
2023-03-16T22:54:02.172Z,1.50
2023-03-16T22:56:31.347Z,1.60
2023-03-16T22:59:08.066Z,1.60
2023-03-16T23:01:46.509Z,1.35
2023-03-16T23:04:20.063Z,1.65
2023-03-16T23:06:53.308Z,1.30
2023-03-16T23:09:21.839Z,1.33
2023-03-16T23:11:53.969Z,1.50
2023-03-16T23:14:28.992Z,1.05
2023-03-16T23:16:56.575Z,1.38
2023-03-16T23:19:31.851Z,1.30
2023-03-16T23:22:05.640Z,1.38
2023-03-16T23:24:34.050Z,1.40
2023-03-16T23:27:01.116Z,1.50
2023-03-16T23:29:28.805Z,1.73
2023-03-16T23:31:56.554Z,1.30
2023-03-16T23:34:25.430Z,1.50
2023-03-16T23:36:55.543Z,1.70
2023-03-16T23:39:22.543Z,1.77
2023-03-16T23:41:50.390Z,1.48
2023-03-16T23:44:28.715Z,1.42
2023-03-16T23:46:55.971Z,1.33
2023-03-16T23:49:28.167Z,1.35
2023-03-16T23:51:57.948Z,1.48
2023-03-16T23:54:31.154Z,1.30
2023-03-16T23:56:58.160Z,1.52
2023-03-16T23:59:26.562Z,1.70
